sensor_id;sensor_type;location;lat;lon;timestamp;pressure;altitude;pressure_sealevel;temperature;humidity
76050;BME280;64967;50.234;19.224;2023-12-14T00:01:42;75101.94;;;-143.90;100.00
76050;BME280;64967;50.234;19.224;2023-12-14T00:04:09;75095.72;;;-143.90;100.00
76050;BME280;64967;50.234;19.224;2023-12-14T00:06:36;75093.66;;;-143.90;100.00
76050;BME280;64967;50.234;19.224;2023-12-14T00:09:02;75101.94;;;-143.90;100.00
76050;BME280;64967;50.234;19.224;2023-12-14T00:11:29;75101.94;;;-143.90;100.00
76050;BME280;64967;50.234;19.224;2023-12-14T00:13:56;75099.88;;;-143.90;100.00
76050;BME280;64967;50.234;19.224;2023-12-14T00:16:23;75101.94;;;-143.90;100.00
76050;BME280;64967;50.234;19.224;2023-12-14T00:18:49;75110.19;;;-143.90;100.00
76050;BME280;64967;50.234;19.224;2023-12-14T00:21:16;75110.19;;;-143.90;100.00
76050;BME280;64967;50.234;19.224;2023-12-14T00:23:42;75116.41;;;-143.90;100.00
76050;BME280;64967;50.234;19.224;2023-12-14T00:26:09;75118.47;;;-143.90;100.00
76050;BME280;64967;50.234;19.224;2023-12-14T00:28:36;75116.41;;;-143.90;100.00
76050;BME280;64967;50.234;19.224;2023-12-14T00:31:02;75122.59;;;-143.90;100.00
76050;BME280;64967;50.234;19.224;2023-12-14T00:33:29;75118.47;;;-143.90;100.00
76050;BME280;64967;50.234;19.224;2023-12-14T00:35:56;75130.88;;;-143.90;100.00
76050;BME280;64967;50.234;19.224;2023-12-14T00:38:23;75132.94;;;-143.90;100.00
76050;BME280;64967;50.234;19.224;2023-12-14T00:40:49;75139.16;;;-143.90;100.00
76050;BME280;64967;50.234;19.224;2023-12-14T00:43:18;75143.28;;;-143.90;100.00
76050;BME280;64967;50.234;19.224;2023-12-14T00:45:45;75157.75;;;-143.90;100.00
76050;BME280;64967;50.234;19.224;2023-12-14T00:48:12;75153.63;;;-143.90;100.00
76050;BME280;64967;50.234;19.224;2023-12-14T00:50:39;75151.53;;;-143.90;100.00
76050;BME280;64967;50.234;19.224;2023-12-14T00:53:05;75159.81;;;-143.90;100.00
76050;BME280;64967;50.234;19.224;2023-12-14T00:55:32;75147.41;;;-143.90;100.00
76050;BME280;64967;50.234;19.224;2023-12-14T00:57:58;75151.53;;;-143.90;100.00
76050;BME280;64967;50.234;19.224;2023-12-14T01:00:25;75153.63;;;-143.90;100.00
76050;BME280;64967;50.234;19.224;2023-12-14T01:02:52;75155.69;;;-143.90;100.00
76050;BME280;64967;50.234;19.224;2023-12-14T01:05:18;75149.47;;;-143.90;100.00
76050;BME280;64967;50.234;19.224;2023-12-14T01:07:45;75153.63;;;-143.90;100.00
76050;BME280;64967;50.234;19.224;2023-12-14T01:10:11;75149.47;;;-143.90;100.00
76050;BME280;64967;50.234;19.224;2023-12-14T01:12:38;75149.47;;;-143.90;100.00
76050;BME280;64967;50.234;19.224;2023-12-14T01:15:05;75143.28;;;-143.90;100.00
76050;BME280;64967;50.234;19.224;2023-12-14T01:17:32;75147.41;;;-143.90;100.00
76050;BME280;64967;50.234;19.224;2023-12-14T01:20:06;75151.53;;;-143.90;100.00
76050;BME280;64967;50.234;19.224;2023-12-14T01:22:34;75147.41;;;-143.90;100.00
76050;BME280;64967;50.234;19.224;2023-12-14T01:25:01;75149.47;;;-143.90;100.00
76050;BME280;64967;50.234;19.224;2023-12-14T01:27:27;75147.41;;;-143.90;100.00
76050;BME280;64967;50.234;19.224;2023-12-14T01:29:54;75159.81;;;-143.90;100.00
76050;BME280;64967;50.234;19.224;2023-12-14T01:32:20;75145.34;;;-143.90;100.00
76050;BME280;64967;50.234;19.224;2023-12-14T01:34:47;75149.47;;;-143.90;100.00
76050;BME280;64967;50.234;19.224;2023-12-14T01:37:14;75139.16;;;-143.90;100.00
76050;BME280;64967;50.234;19.224;2023-12-14T01:39:40;75143.28;;;-143.90;100.00
76050;BME280;64967;50.234;19.224;2023-12-14T01:42:07;75139.16;;;-143.90;100.00
76050;BME280;64967;50.234;19.224;2023-12-14T01:44:34;75139.16;;;-143.90;100.00
76050;BME280;64967;50.234;19.224;2023-12-14T01:47:00;75147.41;;;-143.90;100.00
76050;BME280;64967;50.234;19.224;2023-12-14T01:49:27;75151.53;;;-143.90;100.00
76050;BME280;64967;50.234;19.224;2023-12-14T01:51:54;75153.63;;;-143.90;100.00
76050;BME280;64967;50.234;19.224;2023-12-14T01:54:20;75153.63;;;-143.90;100.00
76050;BME280;64967;50.234;19.224;2023-12-14T01:56:47;75155.69;;;-143.90;100.00
76050;BME280;64967;50.234;19.224;2023-12-14T01:59:14;75161.88;;;-143.90;100.00
76050;BME280;64967;50.234;19.224;2023-12-14T02:01:45;75161.88;;;-143.90;100.00
76050;BME280;64967;50.234;19.224;2023-12-14T02:04:14;75155.69;;;-143.90;100.00
76050;BME280;64967;50.234;19.224;2023-12-14T02:06:41;75155.69;;;-143.90;100.00
76050;BME280;64967;50.234;19.224;2023-12-14T02:09:08;75149.47;;;-143.90;100.00
76050;BME280;64967;50.234;19.224;2023-12-14T02:11:34;75159.81;;;-143.90;100.00
76050;BME280;64967;50.234;19.224;2023-12-14T02:14:11;75174.28;;;-143.90;100.00
76050;BME280;64967;50.234;19.224;2023-12-14T02:16:38;75176.34;;;-143.90;100.00
76050;BME280;64967;50.234;19.224;2023-12-14T02:19:05;75172.22;;;-143.90;100.00
76050;BME280;64967;50.234;19.224;2023-12-14T02:21:32;75174.28;;;-143.90;100.00
76050;BME280;64967;50.234;19.224;2023-12-14T02:23:59;75168.09;;;-143.90;100.00
76050;BME280;64967;50.234;19.224;2023-12-14T02:26:25;75174.28;;;-143.90;100.00
76050;BME280;64967;50.234;19.224;2023-12-14T02:28:52;75174.28;;;-143.90;100.00
76050;BME280;64967;50.234;19.224;2023-12-14T02:31:19;75172.22;;;-143.90;100.00
76050;BME280;64967;50.234;19.224;2023-12-14T02:33:46;75176.34;;;-143.90;100.00
76050;BME280;64967;50.234;19.224;2023-12-14T02:36:13;75186.69;;;-143.90;100.00
76050;BME280;64967;50.234;19.224;2023-12-14T02:38:39;75188.75;;;-143.90;100.00
76050;BME280;64967;50.234;19.224;2023-12-14T02:41:06;75190.81;;;-143.90;100.00
76050;BME280;64967;50.234;19.224;2023-12-14T02:43:33;75197.03;;;-143.90;100.00
76050;BME280;64967;50.234;19.224;2023-12-14T02:46:00;75201.16;;;-143.90;100.00
76050;BME280;64967;50.234;19.224;2023-12-14T02:48:29;75197.03;;;-143.90;100.00
76050;BME280;64967;50.234;19.224;2023-12-14T02:50:56;75197.03;;;-143.90;100.00
76050;BME280;64967;50.234;19.224;2023-12-14T02:53:23;75188.75;;;-143.90;100.00
76050;BME280;64967;50.234;19.224;2023-12-14T02:55:49;75197.03;;;-143.90;100.00
76050;BME280;64967;50.234;19.224;2023-12-14T02:58:18;75197.03;;;-143.90;100.00
76050;BME280;64967;50.234;19.224;2023-12-14T03:00:45;75188.75;;;-143.90;100.00
76050;BME280;64967;50.234;19.224;2023-12-14T03:03:11;75190.81;;;-143.90;100.00
76050;BME280;64967;50.234;19.224;2023-12-14T03:05:38;75184.63;;;-143.90;100.00
76050;BME280;64967;50.234;19.224;2023-12-14T03:08:05;75190.81;;;-143.90;100.00
76050;BME280;64967;50.234;19.224;2023-12-14T03:10:31;75182.56;;;-143.90;100.00
76050;BME280;64967;50.234;19.224;2023-12-14T03:12:58;75186.69;;;-143.90;100.00
76050;BME280;64967;50.234;19.224;2023-12-14T03:15:25;75197.03;;;-143.90;100.00
76050;BME280;64967;50.234;19.224;2023-12-14T03:17:51;75188.75;;;-143.90;100.00
76050;BME280;64967;50.234;19.224;2023-12-14T03:20:18;75192.91;;;-143.90;100.00
76050;BME280;64967;50.234;19.224;2023-12-14T03:22:44;75192.91;;;-143.90;100.00
76050;BME280;64967;50.234;19.224;2023-12-14T03:25:11;75192.91;;;-143.90;100.00
76050;BME280;64967;50.234;19.224;2023-12-14T03:27:38;75192.91;;;-143.90;100.00
76050;BME280;64967;50.234;19.224;2023-12-14T03:30:05;75201.16;;;-143.90;100.00
76050;BME280;64967;50.234;19.224;2023-12-14T03:32:34;75203.22;;;-143.90;100.00
76050;BME280;64967;50.234;19.224;2023-12-14T03:35:02;75209.44;;;-143.90;100.00
76050;BME280;64967;50.234;19.224;2023-12-14T03:37:28;75225.97;;;-143.90;100.00
76050;BME280;64967;50.234;19.224;2023-12-14T03:39:55;75221.84;;;-143.90;100.00
76050;BME280;64967;50.234;19.224;2023-12-14T03:42:22;75223.91;;;-143.90;100.00
76050;BME280;64967;50.234;19.224;2023-12-14T03:44:49;75234.25;;;-143.90;100.00
76050;BME280;64967;50.234;19.224;2023-12-14T03:47:15;75242.50;;;-143.90;100.00
76050;BME280;64967;50.234;19.224;2023-12-14T03:49:42;75242.50;;;-143.90;100.00
76050;BME280;64967;50.234;19.224;2023-12-14T03:52:09;75256.97;;;-143.90;100.00
76050;BME280;64967;50.234;19.224;2023-12-14T03:54:36;75263.19;;;-143.90;100.00
76050;BME280;64967;50.234;19.224;2023-12-14T03:57:02;75275.59;;;-143.90;100.00
76050;BME280;64967;50.234;19.224;2023-12-14T03:59:29;75281.78;;;-143.90;100.00
76050;BME280;64967;50.234;19.224;2023-12-14T04:01:55;75283.84;;;-143.90;100.00
76050;BME280;64967;50.234;19.224;2023-12-14T04:04:22;75277.66;;;-143.90;100.00
76050;BME280;64967;50.234;19.224;2023-12-14T04:06:49;75273.53;;;-143.90;100.00
76050;BME280;64967;50.234;19.224;2023-12-14T04:09:16;75277.66;;;-143.90;100.00
76050;BME280;64967;50.234;19.224;2023-12-14T04:11:42;75277.66;;;-143.90;100.00
76050;BME280;64967;50.234;19.224;2023-12-14T04:14:09;75273.53;;;-143.90;100.00
76050;BME280;64967;50.234;19.224;2023-12-14T04:16:36;75279.72;;;-143.90;100.00
76050;BME280;64967;50.234;19.224;2023-12-14T04:19:03;75283.84;;;-143.90;100.00
76050;BME280;64967;50.234;19.224;2023-12-14T04:21:30;75281.78;;;-143.90;100.00
76050;BME280;64967;50.234;19.224;2023-12-14T04:23:57;75288.00;;;-143.90;100.00
76050;BME280;64967;50.234;19.224;2023-12-14T04:26:24;75298.34;;;-143.90;100.00
76050;BME280;64967;50.234;19.224;2023-12-14T04:28:50;75306.59;;;-143.90;100.00
76050;BME280;64967;50.234;19.224;2023-12-14T04:31:17;75306.59;;;-143.90;100.00
76050;BME280;64967;50.234;19.224;2023-12-14T04:33:43;75308.66;;;-143.90;100.00
76050;BME280;64967;50.234;19.224;2023-12-14T04:36:10;75312.81;;;-143.90;100.00
76050;BME280;64967;50.234;19.224;2023-12-14T04:38:37;75312.81;;;-143.90;100.00
76050;BME280;64967;50.234;19.224;2023-12-14T04:41:03;75312.81;;;-143.90;100.00
76050;BME280;64967;50.234;19.224;2023-12-14T04:43:32;75316.94;;;-143.90;100.00
76050;BME280;64967;50.234;19.224;2023-12-14T04:45:59;75308.66;;;-143.90;100.00
76050;BME280;64967;50.234;19.224;2023-12-14T04:48:25;75306.59;;;-143.90;100.00
76050;BME280;64967;50.234;19.224;2023-12-14T04:50:52;75312.81;;;-143.90;100.00
76050;BME280;64967;50.234;19.224;2023-12-14T04:53:19;75321.06;;;-143.90;100.00
76050;BME280;64967;50.234;19.224;2023-12-14T04:55:45;75321.06;;;-143.90;100.00
76050;BME280;64967;50.234;19.224;2023-12-14T04:58:12;75316.94;;;-143.90;100.00
76050;BME280;64967;50.234;19.224;2023-12-14T05:00:39;75319.00;;;-143.90;100.00
76050;BME280;64967;50.234;19.224;2023-12-14T05:03:06;75312.81;;;-143.90;100.00
76050;BME280;64967;50.234;19.224;2023-12-14T05:05:32;75325.22;;;-143.90;100.00
76050;BME280;64967;50.234;19.224;2023-12-14T05:07:59;75331.41;;;-143.90;100.00
76050;BME280;64967;50.234;19.224;2023-12-14T05:10:27;75329.34;;;-143.90;100.00
76050;BME280;64967;50.234;19.224;2023-12-14T05:12:53;75327.28;;;-143.90;100.00
76050;BME280;64967;50.234;19.224;2023-12-14T05:15:20;75325.22;;;-143.90;100.00
76050;BME280;64967;50.234;19.224;2023-12-14T05:17:47;75316.94;;;-143.90;100.00
76050;BME280;64967;50.234;19.224;2023-12-14T05:20:14;75323.16;;;-143.90;100.00
76050;BME280;64967;50.234;19.224;2023-12-14T05:22:40;75325.22;;;-143.90;100.00
76050;BME280;64967;50.234;19.224;2023-12-14T05:25:08;75325.22;;;-143.90;100.00
76050;BME280;64967;50.234;19.224;2023-12-14T05:27:35;75331.41;;;-143.90;100.00
76050;BME280;64967;50.234;19.224;2023-12-14T05:30:02;75341.75;;;-143.90;100.00
76050;BME280;64967;50.234;19.224;2023-12-14T05:32:29;75341.75;;;-143.90;100.00
76050;BME280;64967;50.234;19.224;2023-12-14T05:34:56;75343.81;;;-143.90;100.00
76050;BME280;64967;50.234;19.224;2023-12-14T05:37:22;75360.34;;;-143.90;100.00
76050;BME280;64967;50.234;19.224;2023-12-14T05:39:49;75366.56;;;-143.90;100.00
76050;BME280;64967;50.234;19.224;2023-12-14T05:42:18;75372.75;;;-143.90;100.00
76050;BME280;64967;50.234;19.224;2023-12-14T05:44:45;75383.09;;;-143.90;100.00
76050;BME280;64967;50.234;19.224;2023-12-14T05:47:12;75391.38;;;-143.90;100.00
76050;BME280;64967;50.234;19.224;2023-12-14T05:49:42;75397.56;;;-143.90;100.00
76050;BME280;64967;50.234;19.224;2023-12-14T05:52:10;75397.56;;;-143.90;100.00
76050;BME280;64967;50.234;19.224;2023-12-14T05:54:37;75399.63;;;-143.90;100.00
76050;BME280;64967;50.234;19.224;2023-12-14T05:57:04;75407.91;;;-143.90;100.00
76050;BME280;64967;50.234;19.224;2023-12-14T05:59:31;75403.78;;;-143.90;100.00
76050;BME280;64967;50.234;19.224;2023-12-14T06:01:58;75393.44;;;-143.90;100.00
76050;BME280;64967;50.234;19.224;2023-12-14T06:04:27;75403.78;;;-143.90;100.00
76050;BME280;64967;50.234;19.224;2023-12-14T06:06:53;75403.78;;;-143.90;100.00
76050;BME280;64967;50.234;19.224;2023-12-14T06:09:20;75407.91;;;-143.90;100.00
76050;BME280;64967;50.234;19.224;2023-12-14T06:11:51;75418.25;;;-143.90;100.00
76050;BME280;64967;50.234;19.224;2023-12-14T06:14:18;75420.31;;;-143.90;100.00
76050;BME280;64967;50.234;19.224;2023-12-14T06:16:45;75420.31;;;-143.90;100.00
76050;BME280;64967;50.234;19.224;2023-12-14T06:19:12;75428.59;;;-143.90;100.00
76050;BME280;64967;50.234;19.224;2023-12-14T06:21:40;75428.59;;;-143.90;100.00
76050;BME280;64967;50.234;19.224;2023-12-14T06:24:07;75420.31;;;-143.90;100.00
76050;BME280;64967;50.234;19.224;2023-12-14T06:26:33;75422.38;;;-143.90;100.00
76050;BME280;64967;50.234;19.224;2023-12-14T06:29:00;75426.50;;;-143.90;100.00
76050;BME280;64967;50.234;19.224;2023-12-14T06:31:27;75430.66;;;-143.90;100.00
76050;BME280;64967;50.234;19.224;2023-12-14T06:33:54;75432.72;;;-143.90;100.00
76050;BME280;64967;50.234;19.224;2023-12-14T06:36:26;75432.72;;;-143.90;100.00
76050;BME280;64967;50.234;19.224;2023-12-14T06:38:57;75426.50;;;-143.90;100.00
76050;BME280;64967;50.234;19.224;2023-12-14T06:41:24;75436.84;;;-143.90;100.00
76050;BME280;64967;50.234;19.224;2023-12-14T06:43:52;75432.72;;;-143.90;100.00
76050;BME280;64967;50.234;19.224;2023-12-14T06:46:19;75436.84;;;-143.90;100.00
76050;BME280;64967;50.234;19.224;2023-12-14T06:48:46;75447.19;;;-143.90;100.00
76050;BME280;64967;50.234;19.224;2023-12-14T06:51:13;75457.53;;;-143.90;100.00
76050;BME280;64967;50.234;19.224;2023-12-14T06:53:42;75463.72;;;-143.90;100.00
76050;BME280;64967;50.234;19.224;2023-12-14T06:56:09;75461.66;;;-143.90;100.00
76050;BME280;64967;50.234;19.224;2023-12-14T06:58:39;75455.47;;;-143.90;100.00
76050;BME280;64967;50.234;19.224;2023-12-14T07:01:06;75463.72;;;-143.90;100.00
76050;BME280;64967;50.234;19.224;2023-12-14T07:03:32;75453.41;;;-143.90;100.00
76050;BME280;64967;50.234;19.224;2023-12-14T07:05:59;75453.41;;;-143.90;100.00
76050;BME280;64967;50.234;19.224;2023-12-14T07:08:26;75447.19;;;-143.90;100.00
76050;BME280;64967;50.234;19.224;2023-12-14T07:10:52;75441.00;;;-143.90;100.00
76050;BME280;64967;50.234;19.224;2023-12-14T07:13:19;75441.00;;;-143.90;100.00
76050;BME280;64967;50.234;19.224;2023-12-14T07:15:47;75441.00;;;-143.90;100.00
76050;BME280;64967;50.234;19.224;2023-12-14T07:18:13;75438.94;;;-143.90;100.00
76050;BME280;64967;50.234;19.224;2023-12-14T07:20:41;75434.78;;;-143.90;100.00
76050;BME280;64967;50.234;19.224;2023-12-14T07:23:07;75434.78;;;-143.90;100.00
76050;BME280;64967;50.234;19.224;2023-12-14T07:25:34;75432.72;;;-143.90;100.00
76050;BME280;64967;50.234;19.224;2023-12-14T07:28:00;75430.66;;;-143.90;100.00
76050;BME280;64967;50.234;19.224;2023-12-14T07:30:27;75430.66;;;-143.90;100.00
76050;BME280;64967;50.234;19.224;2023-12-14T07:32:54;75428.59;;;-143.90;100.00
76050;BME280;64967;50.234;19.224;2023-12-14T07:35:20;75428.59;;;-143.90;100.00
76050;BME280;64967;50.234;19.224;2023-12-14T07:37:47;75426.50;;;-143.90;100.00
76050;BME280;64967;50.234;19.224;2023-12-14T07:40:14;75432.72;;;-143.90;100.00
76050;BME280;64967;50.234;19.224;2023-12-14T07:42:40;75432.72;;;-143.90;100.00
76050;BME280;64967;50.234;19.224;2023-12-14T07:45:08;75434.78;;;-143.90;100.00
76050;BME280;64967;50.234;19.224;2023-12-14T07:47:36;75445.13;;;-143.90;100.00
76050;BME280;64967;50.234;19.224;2023-12-14T07:50:03;75459.59;;;-143.90;100.00
76050;BME280;64967;50.234;19.224;2023-12-14T07:52:30;75472.00;;;-143.90;100.00
76050;BME280;64967;50.234;19.224;2023-12-14T07:54:57;75469.94;;;-143.90;100.00
76050;BME280;64967;50.234;19.224;2023-12-14T07:57:23;75478.22;;;-143.90;100.00
76050;BME280;64967;50.234;19.224;2023-12-14T07:59:50;75472.00;;;-143.90;100.00
76050;BME280;64967;50.234;19.224;2023-12-14T08:02:16;75478.22;;;-143.90;100.00
76050;BME280;64967;50.234;19.224;2023-12-14T08:04:43;75484.41;;;-143.90;100.00
76050;BME280;64967;50.234;19.224;2023-12-14T08:07:10;75494.75;;;-143.90;100.00
76050;BME280;64967;50.234;19.224;2023-12-14T08:09:36;75486.47;;;-143.90;100.00
76050;BME280;64967;50.234;19.224;2023-12-14T08:12:03;75480.28;;;-143.90;100.00
76050;BME280;64967;50.234;19.224;2023-12-14T08:14:32;75478.22;;;-143.90;100.00
76050;BME280;64967;50.234;19.224;2023-12-14T08:17:00;75474.06;;;-143.90;100.00
76050;BME280;64967;50.234;19.224;2023-12-14T08:19:27;75476.13;;;-143.90;100.00
76050;BME280;64967;50.234;19.224;2023-12-14T08:21:53;75474.06;;;-143.90;100.00
76050;BME280;64967;50.234;19.224;2023-12-14T08:24:20;75463.72;;;-143.90;100.00
76050;BME280;64967;50.234;19.224;2023-12-14T08:26:47;75480.28;;;-143.90;100.00
76050;BME280;64967;50.234;19.224;2023-12-14T08:29:13;75486.47;;;-143.90;100.00
76050;BME280;64967;50.234;19.224;2023-12-14T08:31:40;75503.03;;;-143.90;100.00
76050;BME280;64967;50.234;19.224;2023-12-14T08:34:06;75517.50;;;-143.90;100.00
76050;BME280;64967;50.234;19.224;2023-12-14T08:36:33;75517.50;;;-143.90;100.00
76050;BME280;64967;50.234;19.224;2023-12-14T08:39:00;75509.22;;;-143.90;100.00
76050;BME280;64967;50.234;19.224;2023-12-14T08:41:27;75519.56;;;-143.90;100.00
76050;BME280;64967;50.234;19.224;2023-12-14T08:43:53;75536.09;;;-143.90;100.00
76050;BME280;64967;50.234;19.224;2023-12-14T08:46:22;75536.09;;;-143.90;100.00
76050;BME280;64967;50.234;19.224;2023-12-14T08:48:49;75552.63;;;-143.90;100.00
76050;BME280;64967;50.234;19.224;2023-12-14T08:51:16;75552.63;;;-143.90;100.00
76050;BME280;64967;50.234;19.224;2023-12-14T08:53:43;75567.13;;;-143.90;100.00
76050;BME280;64967;50.234;19.224;2023-12-14T08:56:10;75550.56;;;-143.90;100.00
76050;BME280;64967;50.234;19.224;2023-12-14T08:58:37;75560.91;;;-143.90;100.00
76050;BME280;64967;50.234;19.224;2023-12-14T09:01:04;75548.50;;;-143.90;100.00
76050;BME280;64967;50.234;19.224;2023-12-14T09:03:30;75538.16;;;-143.90;100.00
76050;BME280;64967;50.234;19.224;2023-12-14T09:05:57;75540.22;;;-143.90;100.00
76050;BME280;64967;50.234;19.224;2023-12-14T09:08:25;75527.81;;;-143.90;100.00
76050;BME280;64967;50.234;19.224;2023-12-14T09:10:51;75531.97;;;-143.90;100.00
76050;BME280;64967;50.234;19.224;2023-12-14T09:13:18;75531.97;;;-143.90;100.00
76050;BME280;64967;50.234;19.224;2023-12-14T09:15:45;75531.97;;;-143.90;100.00
76050;BME280;64967;50.234;19.224;2023-12-14T09:18:12;75540.22;;;-143.90;100.00
76050;BME280;64967;50.234;19.224;2023-12-14T09:20:39;75546.44;;;-143.90;100.00
76050;BME280;64967;50.234;19.224;2023-12-14T09:23:07;75540.22;;;-143.90;100.00
76050;BME280;64967;50.234;19.224;2023-12-14T09:25:33;75540.22;;;-143.90;100.00
76050;BME280;64967;50.234;19.224;2023-12-14T09:28:00;75515.41;;;-143.90;100.00
76050;BME280;64967;50.234;19.224;2023-12-14T09:30:27;75523.69;;;-143.90;100.00
76050;BME280;64967;50.234;19.224;2023-12-14T09:32:54;75531.97;;;-143.90;100.00
76050;BME280;64967;50.234;19.224;2023-12-14T09:35:21;75536.09;;;-143.90;100.00
76050;BME280;64967;50.234;19.224;2023-12-14T09:37:47;75521.63;;;-143.90;100.00
76050;BME280;64967;50.234;19.224;2023-12-14T09:40:14;75517.50;;;-143.90;100.00
76050;BME280;64967;50.234;19.224;2023-12-14T09:42:42;75523.69;;;-143.90;100.00
76050;BME280;64967;50.234;19.224;2023-12-14T09:45:09;75525.75;;;-143.90;100.00
76050;BME280;64967;50.234;19.224;2023-12-14T09:47:37;75527.81;;;-143.90;100.00
76050;BME280;64967;50.234;19.224;2023-12-14T09:50:05;75536.09;;;-143.90;100.00
76050;BME280;64967;50.234;19.224;2023-12-14T09:52:32;75538.16;;;-143.90;100.00
76050;BME280;64967;50.234;19.224;2023-12-14T09:55:00;75542.31;;;-143.90;100.00
76050;BME280;64967;50.234;19.224;2023-12-14T09:57:27;75552.63;;;-143.90;100.00
76050;BME280;64967;50.234;19.224;2023-12-14T09:59:54;75552.63;;;-143.90;100.00
76050;BME280;64967;50.234;19.224;2023-12-14T10:02:25;75552.63;;;-143.90;100.00
76050;BME280;64967;50.234;19.224;2023-12-14T10:04:53;75554.72;;;-143.90;100.00
76050;BME280;64967;50.234;19.224;2023-12-14T10:07:21;75540.22;;;-143.90;100.00
76050;BME280;64967;50.234;19.224;2023-12-14T10:09:48;75534.03;;;-143.90;100.00
76050;BME280;64967;50.234;19.224;2023-12-14T10:12:14;75529.91;;;-143.90;100.00
76050;BME280;64967;50.234;19.224;2023-12-14T10:14:41;75527.81;;;-143.90;100.00
76050;BME280;64967;50.234;19.224;2023-12-14T10:17:21;75517.50;;;-143.90;100.00
76050;BME280;64967;50.234;19.224;2023-12-14T10:19:48;75527.81;;;-143.90;100.00
76050;BME280;64967;50.234;19.224;2023-12-14T10:22:17;75529.91;;;-143.90;100.00
76050;BME280;64967;50.234;19.224;2023-12-14T10:24:47;75521.63;;;-143.90;100.00
76050;BME280;64967;50.234;19.224;2023-12-14T10:27:15;75523.69;;;-143.90;100.00
76050;BME280;64967;50.234;19.224;2023-12-14T10:29:43;75525.75;;;-143.90;100.00
76050;BME280;64967;50.234;19.224;2023-12-14T10:32:12;75517.50;;;-143.90;100.00
76050;BME280;64967;50.234;19.224;2023-12-14T10:34:38;75521.63;;;-143.90;100.00
76050;BME280;64967;50.234;19.224;2023-12-14T10:37:06;75519.56;;;-143.90;100.00
76050;BME280;64967;50.234;19.224;2023-12-14T10:39:34;75519.56;;;-143.90;100.00
76050;BME280;64967;50.234;19.224;2023-12-14T10:42:05;75511.28;;;-143.90;100.00
76050;BME280;64967;50.234;19.224;2023-12-14T10:44:45;75515.41;;;-143.90;100.00
76050;BME280;64967;50.234;19.224;2023-12-14T10:47:34;75523.69;;;-143.90;100.00
76050;BME280;64967;50.234;19.224;2023-12-14T10:50:01;75519.56;;;-143.90;100.00
76050;BME280;64967;50.234;19.224;2023-12-14T10:52:29;75523.69;;;-143.90;100.00
76050;BME280;64967;50.234;19.224;2023-12-14T10:55:00;75525.75;;;-143.90;100.00
76050;BME280;64967;50.234;19.224;2023-12-14T10:57:28;75517.50;;;-143.90;100.00
76050;BME280;64967;50.234;19.224;2023-12-14T10:59:59;75519.56;;;-143.90;100.00
76050;BME280;64967;50.234;19.224;2023-12-14T11:02:26;75517.50;;;-143.90;100.00
76050;BME280;64967;50.234;19.224;2023-12-14T11:05:02;75519.56;;;-143.90;100.00
76050;BME280;64967;50.234;19.224;2023-12-14T11:07:46;75527.81;;;-143.90;100.00
76050;BME280;64967;50.234;19.224;2023-12-14T11:10:14;75523.69;;;-143.90;100.00
76050;BME280;64967;50.234;19.224;2023-12-14T11:12:50;75529.91;;;-143.90;100.00
76050;BME280;64967;50.234;19.224;2023-12-14T11:15:18;75525.75;;;-143.90;100.00
76050;BME280;64967;50.234;19.224;2023-12-14T11:20:56;75544.38;;;-143.90;100.00
76050;BME280;64967;50.234;19.224;2023-12-14T11:23:30;75536.09;;;-143.90;100.00
76050;BME280;64967;50.234;19.224;2023-12-14T11:26:06;75540.22;;;-143.90;100.00
76050;BME280;64967;50.234;19.224;2023-12-14T11:28:35;75556.78;;;-143.90;100.00
76050;BME280;64967;50.234;19.224;2023-12-14T11:31:02;75573.31;;;-143.90;100.00
76050;BME280;64967;50.234;19.224;2023-12-14T11:33:33;75581.59;;;-143.90;100.00
76050;BME280;64967;50.234;19.224;2023-12-14T11:36:01;75573.31;;;-143.90;100.00
76050;BME280;64967;50.234;19.224;2023-12-14T11:38:30;75573.31;;;-143.90;100.00
76050;BME280;64967;50.234;19.224;2023-12-14T11:41:01;75569.19;;;-143.90;100.00
76050;BME280;64967;50.234;19.224;2023-12-14T11:43:28;75565.03;;;-143.90;100.00
76050;BME280;64967;50.234;19.224;2023-12-14T11:45:55;75556.78;;;-143.90;100.00
76050;BME280;64967;50.234;19.224;2023-12-14T11:48:22;75548.50;;;-143.90;100.00
76050;BME280;64967;50.234;19.224;2023-12-14T11:50:49;75550.56;;;-143.90;100.00
76050;BME280;64967;50.234;19.224;2023-12-14T11:53:16;75552.63;;;-143.90;100.00
76050;BME280;64967;50.234;19.224;2023-12-14T11:55:43;75548.50;;;-143.90;100.00
76050;BME280;64967;50.234;19.224;2023-12-14T11:58:13;75546.44;;;-143.90;100.00
76050;BME280;64967;50.234;19.224;2023-12-14T12:00:41;75554.72;;;-143.90;100.00
76050;BME280;64967;50.234;19.224;2023-12-14T12:03:19;75556.78;;;-143.90;100.00
76050;BME280;64967;50.234;19.224;2023-12-14T12:05:49;75567.13;;;-143.90;100.00
76050;BME280;64967;50.234;19.224;2023-12-14T12:08:19;75577.44;;;-143.90;100.00
76050;BME280;64967;50.234;19.224;2023-12-14T12:10:47;75569.19;;;-143.90;100.00
76050;BME280;64967;50.234;19.224;2023-12-14T12:13:20;75575.38;;;-143.90;100.00
76050;BME280;64967;50.234;19.224;2023-12-14T12:15:47;75577.44;;;-143.90;100.00
76050;BME280;64967;50.234;19.224;2023-12-14T12:18:16;75587.78;;;-143.90;100.00
76050;BME280;64967;50.234;19.224;2023-12-14T12:20:44;75589.84;;;-143.90;100.00
76050;BME280;64967;50.234;19.224;2023-12-14T12:23:10;75585.72;;;-143.90;100.00
76050;BME280;64967;50.234;19.224;2023-12-14T12:25:37;75600.19;;;-143.90;100.00